createdAt,value
2018-11-11T00:01:34.718Z,53.33
2018-11-11T00:04:02.906Z,35.53
2018-11-11T00:06:31.083Z,62.80
2018-11-11T00:08:59.290Z,57.13
2018-11-11T00:11:27.555Z,42.97
2018-11-11T00:13:55.747Z,48.30
2018-11-11T00:16:23.947Z,80.40
2018-11-11T00:18:52.121Z,34.13
2018-11-11T00:21:20.332Z,69.90
2018-11-11T00:23:48.512Z,31.60
2018-11-11T00:26:16.691Z,69.57
2018-11-11T00:28:44.946Z,31.30
2018-11-11T00:31:13.069Z,75.20
2018-11-11T00:33:41.327Z,114.67
2018-11-11T00:36:09.502Z,64.93
2018-11-11T00:38:37.765Z,37.43
2018-11-11T00:41:06.055Z,33.93
2018-11-11T00:43:35.347Z,50.87
2018-11-11T00:46:03.543Z,31.33
2018-11-11T00:48:31.737Z,57.50
2018-11-11T00:51:02.000Z,41.70
2018-11-11T00:53:30.183Z,56.87
2018-11-11T00:55:58.341Z,34.70
2018-11-11T00:58:26.611Z,29.40
2018-11-11T01:00:54.804Z,88.73
2018-11-11T01:03:22.991Z,144.13
2018-11-11T01:05:51.169Z,158.07
2018-11-11T01:08:19.421Z,43.97
2018-11-11T01:10:47.595Z,21.60
2018-11-11T01:13:15.778Z,27.00
2018-11-11T01:15:43.970Z,52.07
2018-11-11T01:18:12.158Z,35.90
2018-11-11T01:20:40.343Z,28.03
2018-11-11T01:23:08.514Z,48.17
2018-11-11T01:25:36.785Z,38.90
2018-11-11T01:28:04.988Z,157.07
2018-11-11T01:30:34.220Z,53.57
2018-11-11T01:33:02.399Z,65.63
2018-11-11T01:35:30.571Z,48.40
2018-11-11T01:37:58.756Z,41.77
2018-11-11T01:40:26.984Z,55.53
2018-11-11T01:42:55.166Z,42.17
2018-11-11T01:45:23.355Z,50.43
2018-11-11T01:47:51.518Z,147.53
2018-11-11T01:50:19.692Z,68.43
2018-11-11T01:52:47.872Z,90.10
2018-11-11T01:55:16.132Z,55.60
2018-11-11T01:57:44.299Z,56.73
2018-11-11T02:00:14.562Z,122.27
2018-11-11T02:02:43.296Z,38.80
2018-11-11T02:05:12.323Z,44.53
2018-11-11T02:07:41.329Z,136.70
2018-11-11T02:10:10.417Z,121.10
2018-11-11T02:12:39.914Z,72.80
2018-11-11T02:15:08.898Z,71.17
2018-11-11T02:17:37.203Z,30.17
2018-11-11T02:20:07.428Z,51.17
2018-11-11T02:22:35.599Z,30.20
2018-11-11T02:25:03.829Z,29.53
2018-11-11T02:27:31.987Z,26.93
2018-11-11T02:30:00.149Z,27.93
2018-11-11T02:32:28.335Z,20.30
2018-11-11T02:34:56.503Z,19.53
2018-11-11T02:37:24.767Z,18.07
2018-11-11T02:39:52.919Z,17.93
2018-11-11T02:42:22.085Z,18.13
2018-11-11T02:44:50.275Z,26.97
2018-11-11T02:47:18.470Z,30.90
2018-11-11T02:49:46.648Z,32.20
2018-11-11T02:52:14.881Z,22.37
2018-11-11T02:54:43.092Z,21.70
2018-11-11T02:57:11.257Z,24.33
2018-11-11T02:59:39.427Z,20.60
2018-11-11T03:02:07.598Z,22.30
2018-11-11T03:04:35.841Z,20.90
2018-11-11T03:07:03.961Z,20.20
2018-11-11T03:09:32.200Z,20.90
2018-11-11T03:12:00.374Z,18.10
2018-11-11T03:14:28.551Z,19.27
2018-11-11T03:16:56.739Z,16.20
2018-11-11T03:19:25.952Z,19.23
2018-11-11T03:21:53.902Z,18.83
2018-11-11T03:24:21.841Z,16.47
2018-11-11T03:26:50.043Z,17.20
2018-11-11T03:29:18.212Z,15.63
2018-11-11T03:31:46.401Z,17.53
2018-11-11T03:34:14.600Z,18.90
2018-11-11T03:36:42.769Z,18.27
2018-11-11T03:39:12.056Z,18.43
2018-11-11T03:41:40.401Z,19.20
2018-11-11T03:44:08.695Z,14.87
2018-11-11T03:46:36.883Z,19.73
2018-11-11T03:49:05.180Z,17.37
2018-11-11T03:51:33.412Z,15.00
2018-11-11T03:54:01.583Z,15.53
2018-11-11T03:56:29.788Z,17.03
2018-11-11T03:58:57.990Z,18.10
2018-11-11T04:01:26.152Z,18.20
2018-11-11T04:03:54.374Z,24.33
2018-11-11T04:06:22.556Z,30.70
2018-11-11T04:08:50.748Z,37.53
2018-11-11T04:11:18.931Z,23.47
2018-11-11T04:13:47.106Z,22.13
2018-11-11T04:16:15.313Z,20.97
2018-11-11T04:18:43.488Z,19.93
2018-11-11T04:21:11.649Z,16.10
2018-11-11T04:23:39.840Z,17.80
2018-11-11T04:26:08.068Z,20.77
2018-11-11T04:28:36.248Z,19.10
2018-11-11T04:31:04.672Z,17.73
2018-11-11T04:33:32.850Z,19.50
2018-11-11T04:36:01.015Z,17.70
2018-11-11T04:38:29.212Z,17.30
2018-11-11T04:40:57.395Z,18.37
2018-11-11T04:43:25.577Z,15.77
2018-11-11T04:45:53.744Z,18.63
2018-11-11T04:48:21.945Z,15.80
2018-11-11T04:50:50.141Z,14.23
2018-11-11T04:53:18.313Z,18.70
2018-11-11T04:55:46.488Z,15.63
2018-11-11T04:58:14.659Z,16.20
2018-11-11T05:00:42.843Z,17.87
2018-11-11T05:03:11.049Z,20.43
2018-11-11T05:05:39.239Z,21.27
2018-11-11T05:08:07.405Z,17.13
2018-11-11T05:10:35.597Z,14.90
2018-11-11T05:13:03.892Z,14.87
2018-11-11T05:15:32.075Z,15.47
2018-11-11T05:18:00.247Z,14.33
2018-11-11T05:20:28.424Z,12.63
2018-11-11T05:22:56.638Z,13.77
2018-11-11T05:25:24.795Z,24.83
2018-11-11T05:27:52.979Z,14.30
2018-11-11T05:30:21.157Z,13.37
2018-11-11T05:32:49.333Z,14.83
2018-11-11T05:35:18.603Z,16.07
2018-11-11T05:37:46.792Z,12.80
2018-11-11T05:40:14.992Z,15.00
2018-11-11T05:42:43.794Z,13.17
2018-11-11T05:45:13.184Z,14.87
2018-11-11T05:47:41.895Z,15.83
2018-11-11T05:50:11.890Z,17.93
2018-11-11T05:52:40.209Z,14.37
2018-11-11T05:55:08.759Z,15.63
2018-11-11T05:57:36.933Z,18.83
2018-11-11T06:00:06.603Z,16.30
2018-11-11T06:02:34.811Z,15.93
2018-11-11T06:05:02.987Z,15.00
2018-11-11T06:07:31.291Z,15.20
2018-11-11T06:09:59.460Z,16.60
2018-11-11T06:12:27.654Z,15.33
2018-11-11T06:14:55.843Z,12.97
2018-11-11T06:17:24.059Z,14.30
2018-11-11T06:19:52.240Z,12.93
2018-11-11T06:22:20.410Z,13.10
2018-11-11T06:24:48.579Z,15.33
2018-11-11T06:27:16.814Z,12.40
2018-11-11T06:29:44.720Z,12.27
2018-11-11T06:32:12.886Z,9.67
2018-11-11T06:34:41.075Z,11.27
2018-11-11T06:37:09.245Z,13.97
2018-11-11T06:39:37.408Z,11.27
2018-11-11T06:42:05.671Z,11.37
2018-11-11T06:44:33.864Z,14.03
2018-11-11T06:47:02.338Z,14.33
2018-11-11T06:49:30.526Z,11.70
2018-11-11T06:51:58.678Z,11.27
2018-11-11T06:54:26.875Z,11.67
2018-11-11T06:56:55.039Z,12.13
2018-11-11T06:59:23.214Z,15.57
2018-11-11T07:01:51.374Z,13.53
2018-11-11T07:04:19.552Z,18.73
2018-11-11T07:06:47.780Z,20.40
2018-11-11T07:09:15.971Z,16.83
2018-11-11T07:11:44.193Z,11.53
2018-11-11T07:14:12.420Z,14.93
2018-11-11T07:16:40.590Z,17.90
2018-11-11T07:19:08.751Z,16.10
2018-11-11T07:21:36.944Z,17.90
2018-11-11T07:24:05.004Z,28.47
2018-11-11T07:26:32.942Z,21.80
2018-11-11T07:29:01.088Z,20.47
2018-11-11T07:31:29.319Z,21.37
2018-11-11T07:33:57.459Z,19.70
2018-11-11T07:36:25.733Z,20.00
2018-11-11T07:38:53.898Z,13.47
2018-11-11T07:41:22.088Z,13.83
2018-11-11T07:43:50.309Z,12.70
2018-11-11T07:46:18.466Z,11.10
2018-11-11T07:48:46.646Z,10.30
2018-11-11T07:51:14.874Z,14.20
2018-11-11T07:53:43.039Z,12.50
2018-11-11T07:56:11.223Z,15.47
2018-11-11T07:58:39.400Z,14.30
2018-11-11T08:01:07.578Z,18.57
2018-11-11T08:03:35.751Z,17.33
2018-11-11T08:06:04.162Z,13.13
2018-11-11T08:08:32.334Z,16.40
2018-11-11T08:11:11.942Z,17.33
2018-11-11T08:13:40.105Z,19.30
2018-11-11T08:16:08.302Z,14.10
2018-11-11T08:18:36.457Z,13.97
2018-11-11T08:21:04.790Z,13.00
2018-11-11T08:26:07.457Z,12.77
2018-11-11T08:28:35.628Z,21.30
2018-11-11T08:31:03.807Z,16.20
2018-11-11T08:33:32.004Z,36.67
2018-11-11T08:36:00.214Z,16.03
2018-11-11T08:38:28.386Z,12.40
2018-11-11T08:40:56.549Z,8.90
2018-11-11T08:43:24.752Z,8.90
2018-11-11T08:45:53.017Z,15.33
2018-11-11T08:48:21.246Z,10.97
2018-11-11T08:50:49.413Z,8.60
2018-11-11T08:53:17.530Z,7.50
2018-11-11T08:55:45.704Z,9.17
2018-11-11T08:58:13.969Z,10.13
2018-11-11T09:00:42.067Z,8.67
2018-11-11T09:03:10.335Z,11.20
2018-11-11T09:05:38.566Z,7.70
2018-11-11T09:08:06.699Z,9.50
2018-11-11T09:10:34.896Z,15.13
2018-11-11T09:13:03.046Z,11.87
2018-11-11T09:15:31.231Z,11.10
2018-11-11T09:17:59.469Z,12.20
2018-11-11T09:20:27.626Z,10.00
2018-11-11T09:22:55.798Z,11.13
2018-11-11T09:25:24.025Z,9.13
2018-11-11T09:27:51.971Z,8.80
2018-11-11T09:30:19.999Z,10.90
2018-11-11T09:32:48.111Z,15.73
2018-11-11T09:35:16.369Z,10.43
2018-11-11T09:37:44.475Z,8.30
2018-11-11T09:40:13.447Z,7.27
2018-11-11T09:42:41.900Z,7.40
2018-11-11T09:45:11.921Z,8.37
2018-11-11T09:47:40.326Z,8.40
2018-11-11T09:50:10.526Z,6.10
2018-11-11T09:52:38.769Z,5.73
2018-11-11T09:55:07.702Z,11.27
2018-11-11T09:57:36.581Z,9.80
2018-11-11T10:00:07.452Z,7.27
2018-11-11T10:02:35.661Z,9.03
2018-11-11T10:05:40.896Z,6.70
2018-11-11T10:09:20.656Z,9.50
2018-11-11T10:11:59.952Z,10.27
2018-11-11T10:14:50.091Z,7.33
2018-11-11T10:19:28.104Z,8.33
2018-11-11T10:24:04.135Z,7.57
2018-11-11T10:26:40.248Z,7.73
2018-11-11T10:30:14.315Z,5.77
2018-11-11T10:33:00.555Z,5.30
2018-11-11T10:36:31.560Z,5.93
2018-11-11T10:41:09.808Z,5.60
2018-11-11T10:44:09.564Z,4.80
2018-11-11T10:46:43.950Z,7.10
2018-11-11T10:49:14.959Z,6.10
2018-11-11T10:51:43.139Z,5.50
2018-11-11T10:54:11.429Z,5.17
2018-11-11T10:56:39.646Z,6.80
2018-11-11T10:59:07.847Z,5.03
2018-11-11T11:01:41.485Z,6.10
2018-11-11T11:04:09.719Z,6.33
2018-11-11T11:06:43.363Z,7.00
2018-11-11T11:09:13.947Z,6.90
2018-11-11T11:11:43.260Z,9.97
2018-11-11T11:14:11.931Z,5.07
2018-11-11T11:16:40.261Z,5.37
2018-11-11T11:19:08.463Z,5.57
2018-11-11T11:21:36.675Z,5.57
2018-11-11T11:24:05.065Z,5.40
2018-11-11T11:26:33.239Z,4.90
2018-11-11T11:29:01.434Z,4.40
2018-11-11T11:31:29.672Z,3.87
2018-11-11T11:33:57.983Z,6.93
2018-11-11T11:36:26.712Z,3.20
2018-11-11T11:38:54.908Z,3.30
2018-11-11T11:41:23.122Z,3.90
2018-11-11T11:43:51.298Z,4.30
2018-11-11T11:46:19.534Z,3.03
2018-11-11T11:48:47.707Z,3.27
2018-11-11T11:51:16.020Z,3.30
2018-11-11T11:53:43.973Z,2.87
2018-11-11T11:56:12.175Z,4.43
2018-11-11T11:58:40.400Z,3.20
2018-11-11T12:01:08.574Z,4.80
2018-11-11T12:03:36.749Z,4.00
2018-11-11T12:06:05.169Z,3.13
2018-11-11T12:08:33.461Z,8.37
2018-11-11T12:11:01.574Z,7.70
2018-11-11T12:13:29.743Z,6.60
2018-11-11T12:15:57.930Z,3.43
2018-11-11T12:18:26.130Z,2.50
2018-11-11T12:20:54.310Z,4.27
2018-11-11T12:23:22.555Z,4.47
2018-11-11T12:25:50.674Z,5.47
2018-11-11T12:28:18.887Z,4.00
2018-11-11T12:30:47.058Z,3.70
2018-11-11T12:33:15.227Z,4.10
2018-11-11T12:35:43.393Z,4.07
2018-11-11T12:38:11.619Z,2.73
2018-11-11T12:40:39.805Z,7.07
2018-11-11T12:43:07.999Z,4.63
2018-11-11T12:45:36.166Z,2.47
2018-11-11T12:48:04.341Z,2.80
2018-11-11T12:50:32.532Z,2.27
2018-11-11T12:53:00.710Z,2.97
2018-11-11T12:55:28.976Z,2.97
2018-11-11T12:57:57.102Z,3.00
2018-11-11T13:00:25.445Z,4.23
2018-11-11T13:02:53.621Z,4.73
2018-11-11T13:05:21.789Z,5.20
2018-11-11T13:07:49.978Z,2.57
2018-11-11T13:10:18.159Z,3.03
2018-11-11T13:12:46.342Z,2.53
2018-11-11T13:15:14.807Z,2.83
2018-11-11T13:17:43.653Z,1.77
2018-11-11T13:20:13.908Z,1.90
2018-11-11T13:22:42.175Z,3.17
2018-11-11T13:25:11.575Z,1.87
2018-11-11T13:27:39.772Z,3.63
2018-11-11T13:30:09.588Z,2.63
2018-11-11T13:32:38.239Z,3.57
2018-11-11T13:35:07.739Z,1.73
2018-11-11T13:37:35.903Z,3.90
2018-11-11T13:40:05.597Z,2.60
2018-11-11T13:42:33.771Z,3.47
2018-11-11T13:45:02.007Z,12.97
2018-11-11T13:47:30.183Z,2.10
2018-11-11T13:49:58.359Z,5.83
2018-11-11T13:52:26.545Z,3.90
2018-11-11T13:54:54.792Z,1.70
2018-11-11T13:57:22.995Z,1.83
2018-11-11T13:59:51.187Z,3.20
2018-11-11T14:02:19.376Z,5.03
2018-11-11T14:04:47.589Z,6.20
2018-11-11T14:07:22.395Z,4.37
2018-11-11T14:09:50.568Z,3.43
2018-11-11T14:12:18.767Z,3.93
2018-11-11T14:14:46.923Z,3.80
2018-11-11T14:17:15.127Z,2.40
2018-11-11T14:19:43.365Z,2.60
2018-11-11T14:22:11.571Z,5.33
2018-11-11T14:24:39.750Z,3.20
2018-11-11T14:27:07.948Z,3.10
2018-11-11T14:29:36.115Z,3.77
2018-11-11T14:32:04.337Z,7.53
2018-11-11T14:34:32.465Z,4.27
2018-11-11T14:37:00.638Z,2.77
2018-11-11T14:39:28.799Z,2.50
2018-11-11T14:41:56.971Z,2.70
2018-11-11T14:44:25.159Z,2.87
2018-11-11T14:46:53.360Z,4.73
2018-11-11T14:49:21.543Z,3.43
2018-11-11T14:51:49.820Z,3.57
2018-11-11T15:42:46.047Z,7.00
2018-11-11T15:45:19.667Z,9.10
2018-11-11T15:47:47.936Z,6.33
2018-11-11T15:50:24.509Z,11.10
2018-11-11T15:52:55.986Z,5.13
2018-11-11T15:55:25.515Z,5.07
2018-11-11T15:57:54.345Z,20.10
2018-11-11T16:00:25.156Z,17.47
2018-11-11T16:02:54.150Z,5.43
2018-11-11T16:05:23.887Z,6.83
2018-11-11T16:07:54.262Z,13.20
2018-11-11T16:10:26.933Z,6.47
2018-11-11T16:12:55.727Z,5.17
2018-11-11T16:15:29.725Z,6.37
2018-11-11T16:17:59.903Z,4.17
2018-11-11T16:20:30.447Z,9.13
2018-11-11T16:23:00.181Z,19.93
2018-11-11T16:25:28.997Z,12.93
2018-11-11T16:30:43.657Z,21.93
2018-11-11T16:33:11.870Z,42.77
2018-11-11T16:35:40.059Z,12.37
2018-11-11T16:38:08.286Z,18.53
2018-11-11T16:40:43.247Z,12.10
2018-11-11T16:43:11.402Z,9.60
2018-11-11T16:45:39.604Z,13.20
2018-11-11T16:48:07.870Z,9.87
2018-11-11T16:50:36.909Z,11.30
2018-11-11T16:53:06.710Z,13.53
2018-11-11T16:55:35.624Z,12.13
2018-11-11T16:58:03.829Z,11.27
2018-11-11T17:00:33.404Z,12.10
2018-11-11T17:03:02.392Z,15.43
2018-11-11T17:05:31.863Z,20.10
2018-11-11T17:08:00.083Z,27.00
2018-11-11T17:10:30.811Z,28.53
2018-11-11T17:13:00.514Z,28.70
2018-11-11T17:15:30.022Z,25.67
2018-11-11T17:17:58.239Z,27.10
2018-11-11T17:20:27.039Z,49.83
2018-11-11T17:22:56.702Z,34.60
2018-11-11T17:25:25.686Z,33.30
2018-11-11T17:27:54.065Z,28.60
2018-11-11T17:30:24.451Z,16.73
2018-11-11T17:32:53.172Z,45.20
2018-11-11T17:35:21.435Z,46.83
2018-11-11T17:37:49.631Z,35.33
2018-11-11T17:40:20.621Z,36.40
2018-11-11T17:42:49.965Z,53.87
2018-11-11T17:45:18.632Z,69.93
2018-11-11T17:47:47.547Z,59.70
2018-11-11T17:50:24.961Z,62.00
2018-11-11T17:52:53.235Z,51.40
2018-11-11T17:55:22.757Z,55.10
2018-11-11T17:57:50.888Z,46.03
2018-11-11T18:00:20.296Z,30.30
2018-11-11T18:02:48.771Z,29.07
2018-11-11T18:05:18.248Z,21.80
2018-11-11T18:07:46.459Z,27.53
2018-11-11T18:10:15.872Z,15.23
2018-11-11T18:12:44.064Z,18.50
2018-11-11T18:15:14.455Z,14.90
2018-11-11T18:17:42.919Z,21.90
2018-11-11T18:20:13.905Z,27.87
2018-11-11T18:22:42.306Z,25.37
2018-11-11T18:25:10.488Z,22.07
2018-11-11T18:27:38.845Z,12.17
2018-11-11T18:30:11.173Z,15.33
2018-11-11T18:32:39.388Z,9.87
2018-11-11T18:35:08.850Z,13.50
2018-11-11T18:37:37.007Z,13.27
2018-11-11T18:40:06.146Z,18.67
2018-11-11T18:42:34.410Z,13.83
2018-11-11T18:45:02.638Z,15.37
2018-11-11T18:47:30.856Z,17.90
2018-11-11T18:49:58.991Z,30.53
2018-11-11T18:52:27.174Z,20.37
2018-11-11T18:54:55.792Z,20.50
2018-11-11T18:57:24.328Z,19.90
2018-11-11T18:59:52.596Z,35.40
2018-11-11T19:02:20.942Z,38.67
2018-11-11T19:04:49.215Z,38.73
2018-11-11T19:07:17.533Z,30.10
2018-11-11T19:09:45.833Z,25.90
2018-11-11T19:12:13.950Z,24.03
2018-11-11T19:14:42.123Z,27.40
2018-11-11T19:17:10.290Z,24.23
2018-11-11T19:19:41.863Z,29.83
2018-11-11T19:22:10.045Z,15.90
2018-11-11T19:24:38.357Z,17.50
2018-11-11T19:27:06.539Z,25.40
2018-11-11T19:29:34.695Z,12.60
2018-11-11T19:32:02.906Z,10.10
2018-11-11T19:34:31.078Z,11.30
2018-11-11T19:36:59.285Z,11.27
2018-11-11T19:39:27.455Z,15.97
2018-11-11T19:41:55.641Z,19.40
2018-11-11T19:44:23.808Z,19.70
2018-11-11T19:46:52.023Z,19.93
2018-11-11T19:49:20.333Z,15.27
2018-11-11T19:51:48.487Z,21.07
2018-11-11T19:54:17.701Z,23.17
2018-11-11T19:56:45.895Z,20.17
2018-11-11T19:59:14.035Z,22.27
2018-11-11T20:01:42.213Z,24.83
2018-11-11T20:04:10.383Z,18.90
2018-11-11T20:06:38.611Z,29.17
2018-11-11T20:09:08.403Z,22.30
2018-11-11T20:11:36.764Z,14.33
2018-11-11T20:14:05.403Z,24.77
2018-11-11T20:16:33.587Z,20.73
2018-11-11T20:19:01.747Z,23.93
2018-11-11T20:21:29.919Z,12.27
2018-11-11T20:23:58.308Z,23.67
2018-11-11T20:26:26.295Z,21.23
2018-11-11T20:28:54.734Z,20.50
2018-11-11T20:31:22.904Z,18.30
2018-11-11T20:33:51.156Z,23.10
2018-11-11T20:36:19.303Z,25.53
2018-11-11T20:38:47.515Z,33.50
2018-11-11T20:41:15.706Z,27.33
2018-11-11T20:43:43.936Z,26.50
2018-11-11T20:46:12.199Z,22.47
2018-11-11T20:48:40.403Z,33.27
2018-11-11T20:51:08.569Z,33.77
2018-11-11T20:53:36.742Z,30.00
2018-11-11T20:56:05.036Z,26.27
2018-11-11T20:58:33.122Z,25.83
2018-11-11T21:01:01.339Z,27.43
2018-11-11T21:03:29.569Z,23.50
2018-11-11T21:05:57.699Z,57.60
2018-11-11T21:08:32.756Z,85.87
2018-11-11T21:11:00.939Z,50.23
2018-11-11T21:13:29.119Z,50.83
2018-11-11T21:15:57.291Z,36.70
2018-11-11T21:18:25.482Z,39.33
2018-11-11T21:20:53.675Z,39.47
2018-11-11T21:23:21.637Z,27.37
2018-11-11T21:25:50.758Z,28.93
2018-11-11T21:28:18.934Z,20.20
2018-11-11T21:30:47.146Z,23.67
2018-11-11T21:33:15.333Z,23.27
2018-11-11T21:35:43.512Z,20.87
2018-11-11T21:38:11.816Z,19.60
2018-11-11T21:40:40.138Z,18.17
2018-11-11T21:43:08.429Z,25.73
2018-11-11T21:45:36.821Z,22.07
2018-11-11T21:48:05.789Z,18.50
2018-11-11T21:50:33.921Z,21.57
2018-11-11T21:53:11.055Z,28.57
2018-11-11T21:55:39.237Z,24.20
2018-11-11T21:58:09.450Z,45.07
2018-11-11T22:00:37.650Z,37.27
2018-11-11T22:03:06.949Z,46.60
2018-11-11T22:05:41.575Z,22.63
2018-11-11T22:08:09.767Z,16.77
2018-11-11T22:10:37.952Z,19.07
2018-11-11T22:13:06.149Z,24.53
2018-11-11T22:15:34.346Z,24.40
2018-11-11T22:18:02.539Z,16.70
2018-11-11T22:20:30.714Z,20.90
2018-11-11T22:22:58.668Z,28.43
2018-11-11T22:25:26.846Z,33.50
2018-11-11T22:27:55.057Z,22.83
2018-11-11T22:30:23.227Z,23.53
2018-11-11T22:32:51.407Z,17.90
2018-11-11T22:35:19.591Z,15.23
2018-11-11T22:37:47.791Z,15.37
2018-11-11T22:40:16.044Z,20.43
2018-11-11T22:42:44.216Z,28.90
2018-11-11T22:45:13.643Z,20.33
2018-11-11T22:47:41.923Z,20.00
2018-11-11T22:50:11.714Z,21.30
2018-11-11T22:52:40.272Z,22.67
2018-11-11T22:55:09.515Z,22.13
2018-11-11T22:57:37.761Z,25.30
2018-11-11T23:00:15.784Z,24.10
2018-11-11T23:02:44.064Z,21.40
2018-11-11T23:05:12.346Z,20.70
2018-11-11T23:07:40.571Z,19.63
2018-11-11T23:10:10.839Z,20.97
2018-11-11T23:12:39.294Z,28.50
2018-11-11T23:15:09.231Z,29.47
2018-11-11T23:17:37.409Z,30.37
2018-11-11T23:20:07.346Z,23.63
2018-11-11T23:22:35.507Z,19.17
2018-11-11T23:25:03.810Z,23.93
2018-11-11T23:27:31.762Z,18.83
2018-11-11T23:30:00.062Z,22.20
2018-11-11T23:32:28.267Z,19.40
2018-11-11T23:34:56.447Z,18.27
2018-11-11T23:37:24.648Z,27.13
2018-11-11T23:39:52.921Z,18.60
2018-11-11T23:42:21.091Z,17.97
2018-11-11T23:44:49.297Z,21.73
2018-11-11T23:47:17.535Z,21.57
2018-11-11T23:49:45.705Z,20.43
2018-11-11T23:52:13.893Z,18.80
2018-11-11T23:54:42.152Z,18.93
2018-11-11T23:57:10.345Z,18.47
2018-11-11T23:59:38.555Z,20.80
